createdAt,value
2023-04-14T00:00:07.828Z,1.10
2023-04-14T00:02:41.089Z,1.00
2023-04-14T00:05:08.872Z,1.00
2023-04-14T00:07:35.895Z,0.80
2023-04-14T00:10:02.808Z,0.90
2023-04-14T00:12:29.725Z,0.73
2023-04-14T00:14:56.644Z,1.13
2023-04-14T00:17:23.661Z,0.90
2023-04-14T00:19:50.611Z,0.93
2023-04-14T00:22:18.467Z,0.88
2023-04-14T00:24:45.862Z,1.00
2023-04-14T00:27:12.749Z,1.00
2023-04-14T00:29:39.651Z,1.08
2023-04-14T00:32:06.818Z,0.93
2023-04-14T00:34:34.188Z,0.98
2023-04-14T00:37:01.239Z,1.02
2023-04-14T00:39:30.341Z,1.25
2023-04-14T00:41:57.278Z,1.27
2023-04-14T00:44:25.398Z,1.23
2023-04-14T00:46:52.896Z,1.30
2023-04-14T00:49:20.137Z,1.20
2023-04-14T00:51:48.159Z,1.35
2023-04-14T00:54:18.971Z,1.80
2023-04-14T00:56:47.287Z,1.40
2023-04-14T00:59:16.414Z,2.42
2023-04-14T01:01:43.606Z,1.50
2023-04-14T01:04:11.487Z,1.83
2023-04-14T01:06:38.508Z,1.27
2023-04-14T01:09:06.492Z,1.42
2023-04-14T01:11:39.257Z,1.50
2023-04-14T01:14:13.277Z,1.77
2023-04-14T01:16:45.502Z,1.88
2023-04-14T01:19:21.485Z,1.73
2023-04-14T01:21:54.422Z,1.90
2023-04-14T01:24:33.062Z,1.97
2023-04-14T01:27:06.981Z,2.30
2023-04-14T01:30:10.407Z,2.10
2023-04-14T01:32:43.087Z,2.10
2023-04-14T01:35:24.626Z,2.47
2023-04-14T01:38:03.956Z,2.63
2023-04-14T01:40:33.306Z,2.28
2023-04-14T01:43:04.436Z,2.38
2023-04-14T01:45:38.878Z,2.33
2023-04-14T01:48:07.703Z,2.85
2023-04-14T01:50:37.047Z,2.78
2023-04-14T01:53:07.217Z,3.10
2023-04-14T01:55:37.602Z,2.55
2023-04-14T01:58:06.995Z,2.30
2023-04-14T02:00:36.458Z,2.67
2023-04-14T02:03:06.314Z,2.50
2023-04-14T02:05:39.334Z,2.55
2023-04-14T02:08:10.221Z,2.38
2023-04-14T02:10:39.446Z,2.53
2023-04-14T02:13:08.131Z,2.72
2023-04-14T02:15:39.652Z,2.38
2023-04-14T02:18:07.810Z,2.80
2023-04-14T02:20:42.617Z,2.53
2023-04-14T02:23:14.834Z,2.55
2023-04-14T02:25:50.753Z,2.75
2023-04-14T02:28:21.511Z,2.80
2023-04-14T02:30:52.605Z,2.42
2023-04-14T02:33:22.640Z,3.00
2023-04-14T02:36:01.147Z,3.78
2023-04-14T02:38:42.013Z,2.20
2023-04-14T02:41:24.918Z,3.15
2023-04-14T02:44:10.503Z,2.45
2023-04-14T02:46:50.388Z,2.45
2023-04-14T02:49:18.492Z,2.45
2023-04-14T02:51:47.628Z,2.42
2023-04-14T02:54:18.675Z,2.00
2023-04-14T02:56:48.522Z,2.20
2023-04-14T02:59:19.453Z,2.33
2023-04-14T03:02:05.343Z,2.30
2023-04-14T03:04:38.422Z,2.90
2023-04-14T03:07:13.645Z,2.92
2023-04-14T03:09:41.380Z,2.75
2023-04-14T03:12:12.818Z,2.88
2023-04-14T03:14:41.077Z,3.00
2023-04-14T03:17:09.372Z,2.78
2023-04-14T03:19:40.635Z,2.92
2023-04-14T03:22:12.281Z,2.50
2023-04-14T03:24:40.396Z,2.45
2023-04-14T03:27:10.965Z,2.70
2023-04-14T03:29:41.315Z,2.50
2023-04-14T03:32:10.331Z,2.45
2023-04-14T03:34:42.885Z,2.55
2023-04-14T03:37:11.281Z,2.35
2023-04-14T03:39:39.677Z,2.70
2023-04-14T03:42:08.595Z,2.53
2023-04-14T03:44:38.874Z,2.50
2023-04-14T03:47:08.212Z,2.63
2023-04-14T03:49:38.189Z,2.83
2023-04-14T03:52:10.040Z,2.53
2023-04-14T03:54:39.095Z,2.58
2023-04-14T03:57:08.782Z,2.60
2023-04-14T03:59:38.583Z,2.80
2023-04-14T04:02:08.194Z,3.22
2023-04-14T04:04:36.855Z,2.42
2023-04-14T04:07:07.856Z,2.53
2023-04-14T04:09:36.693Z,2.50
2023-04-14T04:12:04.533Z,2.75
2023-04-14T04:14:33.378Z,3.00
2023-04-14T04:17:04.307Z,2.75
2023-04-14T04:19:32.476Z,2.88
2023-04-14T04:22:01.460Z,3.08
2023-04-14T04:24:36.788Z,2.80
2023-04-14T04:29:35.137Z,2.70
2023-04-14T04:32:02.440Z,3.00
2023-04-14T04:34:32.311Z,2.78
2023-04-14T04:37:03.824Z,2.80
2023-04-14T04:39:31.032Z,2.72
2023-04-14T04:42:06.644Z,2.92
2023-04-14T04:44:34.912Z,2.65
2023-04-14T04:47:02.268Z,2.53
2023-04-14T04:49:29.456Z,2.28
2023-04-14T04:52:01.810Z,2.83
2023-04-14T04:54:29.001Z,2.80
2023-04-14T04:56:57.597Z,2.28
2023-04-14T04:59:24.964Z,2.72
2023-04-14T05:01:52.137Z,2.60
2023-04-14T05:04:19.159Z,2.72
2023-04-14T05:06:46.135Z,3.13
2023-04-14T05:09:13.167Z,2.90
2023-04-14T05:11:40.269Z,2.83
2023-04-14T05:14:07.167Z,2.35
2023-04-14T05:16:34.210Z,2.75
2023-04-14T05:19:01.444Z,3.00
2023-04-14T05:21:28.539Z,3.28
2023-04-14T05:23:55.654Z,3.10
2023-04-14T05:28:52.655Z,3.22
2023-04-14T05:31:20.592Z,3.42
2023-04-14T05:33:47.560Z,3.50
2023-04-14T05:36:14.504Z,3.65
2023-04-14T05:38:41.637Z,3.45
2023-04-14T05:41:08.881Z,3.15
2023-04-14T05:43:35.813Z,3.75
2023-04-14T05:46:02.990Z,3.80
2023-04-14T05:48:31.033Z,3.75
2023-04-14T05:50:58.274Z,3.28
2023-04-14T05:53:25.805Z,4.20
2023-04-14T05:55:53.444Z,4.63
2023-04-14T05:58:20.380Z,4.22
2023-04-14T06:00:47.505Z,4.00
2023-04-14T06:03:16.227Z,3.90
2023-04-14T06:05:43.579Z,3.47
2023-04-14T06:08:10.560Z,3.72
2023-04-14T06:10:37.550Z,3.83
2023-04-14T06:13:04.493Z,4.03
2023-04-14T06:15:31.524Z,6.05
2023-04-14T06:17:58.577Z,8.10
2023-04-14T06:20:25.827Z,4.85
2023-04-14T06:22:52.884Z,4.28
2023-04-14T06:25:19.859Z,4.47
2023-04-14T06:27:47.151Z,4.75
2023-04-14T06:30:16.959Z,4.90
2023-04-14T06:32:44.187Z,4.40
2023-04-14T06:35:19.078Z,4.60
2023-04-14T06:37:52.965Z,6.20
2023-04-14T06:40:19.944Z,5.28
2023-04-14T06:42:46.893Z,4.85
2023-04-14T06:45:13.934Z,5.13
2023-04-14T06:47:40.994Z,5.10
2023-04-14T06:50:08.298Z,5.22
2023-04-14T06:52:35.304Z,5.45
2023-04-14T06:55:02.258Z,4.80
2023-04-14T06:57:29.244Z,5.30
2023-04-14T06:59:56.707Z,5.07
2023-04-14T07:02:23.886Z,5.30
2023-04-14T07:04:51.275Z,5.57
2023-04-14T07:07:18.300Z,5.43
2023-04-14T07:09:45.328Z,5.60
2023-04-14T07:12:16.614Z,5.25
2023-04-14T07:14:50.938Z,5.90
2023-04-14T07:17:18.931Z,6.13
2023-04-14T07:19:46.497Z,5.68
2023-04-14T07:22:13.625Z,4.88
2023-04-14T07:24:41.123Z,5.97
2023-04-14T07:27:15.498Z,5.65
2023-04-14T07:29:43.049Z,5.65
2023-04-14T07:32:11.912Z,5.55
2023-04-14T07:34:44.089Z,5.75
2023-04-14T07:37:11.602Z,5.15
2023-04-14T07:39:38.801Z,5.38
2023-04-14T07:42:06.739Z,5.88
2023-04-14T07:44:33.748Z,7.35
2023-04-14T07:47:00.834Z,5.90
2023-04-14T07:49:27.845Z,5.32
2023-04-14T07:51:54.849Z,5.55
2023-04-14T07:54:22.205Z,5.50
2023-04-14T07:56:49.461Z,4.40
2023-04-14T07:59:16.439Z,4.97
2023-04-14T08:01:43.608Z,5.57
2023-04-14T08:04:11.094Z,4.90
2023-04-14T08:06:38.196Z,4.82
2023-04-14T08:09:05.260Z,5.13
2023-04-14T08:11:32.256Z,4.97
2023-04-14T08:13:59.163Z,4.93
2023-04-14T08:16:26.560Z,4.72
2023-04-14T08:18:55.652Z,5.50
2023-04-14T08:21:24.255Z,5.05
2023-04-14T08:23:51.216Z,5.63
2023-04-14T08:26:18.164Z,5.00
2023-04-14T08:28:47.044Z,4.18
2023-04-14T08:31:13.989Z,4.55
2023-04-14T08:33:41.108Z,4.85
2023-04-14T08:36:08.435Z,4.75
2023-04-14T08:38:35.500Z,4.72
2023-04-14T08:41:07.366Z,4.60
2023-04-14T08:43:35.361Z,4.57
2023-04-14T08:46:03.966Z,3.45
2023-04-14T08:48:32.052Z,2.70
2023-04-14T08:51:05.332Z,2.50
2023-04-14T08:53:33.020Z,2.58
2023-04-14T08:56:03.145Z,2.30
2023-04-14T08:58:31.376Z,2.28
2023-04-14T09:00:59.100Z,3.70
2023-04-14T09:03:30.075Z,3.90
2023-04-14T09:05:57.753Z,3.63
2023-04-14T09:08:24.943Z,3.47
2023-04-14T09:10:51.823Z,3.45
2023-04-14T09:13:21.548Z,3.45
2023-04-14T09:15:49.687Z,2.47
2023-04-14T09:18:17.188Z,1.55
2023-04-14T09:20:47.941Z,2.03
2023-04-14T09:23:34.842Z,2.33
2023-04-14T09:26:02.291Z,2.55
2023-04-14T09:28:29.237Z,3.00
2023-04-14T09:30:56.830Z,2.13
2023-04-14T09:33:23.929Z,2.05
2023-04-14T09:35:52.038Z,1.23
2023-04-14T09:38:38.857Z,0.50
2023-04-14T09:41:06.497Z,0.32
2023-04-14T09:43:34.174Z,0.50
2023-04-14T09:46:10.823Z,0.65
2023-04-14T09:48:58.548Z,0.60
2023-04-14T09:51:29.802Z,0.45
2023-04-14T09:54:02.553Z,1.00
2023-04-14T09:56:29.804Z,1.10
2023-04-14T09:58:59.733Z,0.77
2023-04-14T10:01:32.418Z,0.47
2023-04-14T10:04:01.378Z,0.40
2023-04-14T10:06:28.485Z,0.60
2023-04-14T10:08:56.426Z,2.20
2023-04-14T10:11:25.201Z,2.10
2023-04-14T10:14:00.670Z,1.70
2023-04-14T10:16:27.762Z,2.08
2023-04-14T10:18:55.561Z,7.53
2023-04-14T10:21:23.098Z,2.70
2023-04-14T10:23:51.451Z,1.42
2023-04-14T10:26:19.515Z,0.60
2023-04-14T10:28:50.945Z,0.40
2023-04-14T10:31:45.926Z,0.30
2023-04-14T10:34:14.120Z,0.30
2023-04-14T10:36:41.408Z,0.40
2023-04-14T10:39:10.947Z,0.30
2023-04-14T10:41:43.969Z,0.45
2023-04-14T10:44:29.694Z,0.25
2023-04-14T10:46:58.304Z,0.47
2023-04-14T10:49:33.603Z,0.30
2023-04-14T10:52:26.367Z,0.40
2023-04-14T10:54:55.364Z,0.28
2023-04-14T10:57:23.866Z,0.95
2023-04-14T10:59:55.840Z,0.57
2023-04-14T11:02:28.192Z,0.20
2023-04-14T11:05:11.363Z,0.40
2023-04-14T11:07:44.754Z,0.43
2023-04-14T11:10:21.185Z,0.30
2023-04-14T11:12:49.522Z,0.60
2023-04-14T11:15:17.111Z,0.40
2023-04-14T11:17:44.899Z,0.30
2023-04-14T11:20:25.035Z,0.20
2023-04-14T11:22:54.110Z,0.68
2023-04-14T11:25:24.550Z,0.40
2023-04-14T11:27:52.499Z,0.38
2023-04-14T11:30:21.167Z,0.60
2023-04-14T11:32:57.328Z,0.52
2023-04-14T11:35:28.843Z,0.40
2023-04-14T11:37:57.290Z,0.43
2023-04-14T11:40:26.477Z,0.45
2023-04-14T11:42:55.656Z,0.40
2023-04-14T11:45:27.171Z,0.38
2023-04-14T11:48:02.033Z,0.47
2023-04-14T11:50:32.548Z,0.40
2023-04-14T11:53:00.351Z,0.20
2023-04-14T11:55:28.108Z,0.50
2023-04-14T11:57:59.341Z,0.30
2023-04-14T12:00:30.194Z,0.40
2023-04-14T12:02:57.579Z,0.30
2023-04-14T12:05:34.383Z,0.40
2023-04-14T12:08:11.993Z,0.40
2023-04-14T12:10:42.273Z,0.38
2023-04-14T12:13:11.767Z,0.30
2023-04-14T12:15:40.697Z,0.60
2023-04-14T12:18:14.057Z,0.40
2023-04-14T12:20:45.065Z,0.30
2023-04-14T12:23:12.558Z,0.60
2023-04-14T12:25:40.506Z,0.40
2023-04-14T12:28:08.355Z,0.40
2023-04-14T12:30:37.399Z,0.35
2023-04-14T12:33:12.124Z,0.43
2023-04-14T12:35:40.679Z,0.47
2023-04-14T12:38:17.415Z,0.65
2023-04-14T12:40:47.106Z,0.50
2023-04-14T12:43:16.123Z,0.30
2023-04-14T12:45:45.366Z,0.50
2023-04-14T12:48:13.531Z,0.40
2023-04-14T12:50:40.690Z,0.50
2023-04-14T12:53:28.474Z,0.40
2023-04-14T12:56:22.200Z,0.40
2023-04-14T12:58:51.252Z,0.30
2023-04-14T13:01:22.590Z,0.50
2023-04-14T13:03:52.279Z,0.40
2023-04-14T13:06:21.619Z,0.40
2023-04-14T13:08:50.580Z,0.43
2023-04-14T13:11:18.777Z,0.60
2023-04-14T13:13:46.151Z,0.43
2023-04-14T13:16:16.811Z,0.30
2023-04-14T13:18:45.912Z,0.43
2023-04-14T13:21:13.260Z,0.40
2023-04-14T13:23:41.112Z,0.32
2023-04-14T13:26:08.274Z,0.40
2023-04-14T13:28:36.487Z,0.40
2023-04-14T13:31:03.732Z,0.43
2023-04-14T13:33:31.111Z,0.30
2023-04-14T13:35:58.128Z,0.40
2023-04-14T13:38:25.045Z,0.40
2023-04-14T13:40:51.960Z,0.60
2023-04-14T13:43:19.117Z,0.50
2023-04-14T13:45:46.812Z,0.40
2023-04-14T13:48:14.557Z,0.70
2023-04-14T13:50:42.198Z,0.40
2023-04-14T13:53:09.346Z,0.38
2023-04-14T13:55:36.592Z,0.47
2023-04-14T13:58:03.911Z,0.43
2023-04-14T14:00:30.824Z,0.30
2023-04-14T14:02:57.992Z,0.40
2023-04-14T14:05:25.733Z,0.40
2023-04-14T14:07:52.800Z,0.50
2023-04-14T14:10:19.876Z,0.32
2023-04-14T14:12:47.092Z,0.45
2023-04-14T14:15:14.242Z,0.52
2023-04-14T14:17:41.497Z,0.40
2023-04-14T14:20:09.681Z,0.60
2023-04-14T14:22:36.771Z,0.40
2023-04-14T14:25:17.748Z,0.40
2023-04-14T14:27:47.049Z,0.30
2023-04-14T14:30:14.159Z,0.40
2023-04-14T14:32:41.191Z,0.30
2023-04-14T14:35:08.569Z,0.40
2023-04-14T14:37:35.727Z,0.50
2023-04-14T14:40:03.535Z,0.40
2023-04-14T14:42:31.001Z,0.50
2023-04-14T14:44:59.327Z,0.40
2023-04-14T14:47:28.714Z,0.40
2023-04-14T14:50:02.154Z,0.40
2023-04-14T14:52:31.800Z,0.40
2023-04-14T14:54:58.828Z,0.30
2023-04-14T14:57:26.339Z,0.40
2023-04-14T14:59:53.807Z,0.30
2023-04-14T15:02:21.575Z,0.30
2023-04-14T15:04:49.631Z,0.40
2023-04-14T15:07:17.034Z,0.50
2023-04-14T15:09:46.576Z,0.40
2023-04-14T15:12:13.559Z,0.55
2023-04-14T15:14:40.509Z,0.25
2023-04-14T15:17:08.129Z,0.40
2023-04-14T15:19:35.166Z,0.57
2023-04-14T15:22:02.173Z,0.50
2023-04-14T15:24:29.215Z,0.60
2023-04-14T15:26:57.591Z,0.50
2023-04-14T15:29:25.891Z,0.50
2023-04-14T15:31:53.337Z,0.30
2023-04-14T15:34:21.389Z,0.50
2023-04-14T15:36:48.479Z,0.57
2023-04-14T15:39:15.783Z,0.52
2023-04-14T15:41:43.380Z,0.43
2023-04-14T15:44:10.465Z,0.50
2023-04-14T15:46:38.024Z,0.50
2023-04-14T15:49:05.829Z,0.60
2023-04-14T15:51:32.934Z,0.50
2023-04-14T15:54:00.371Z,0.63
2023-04-14T15:56:28.388Z,0.60
2023-04-14T15:58:55.330Z,0.50
2023-04-14T16:01:22.395Z,0.50
2023-04-14T16:03:51.942Z,0.63
2023-04-14T16:06:19.665Z,0.63
2023-04-14T16:08:46.842Z,0.70
2023-04-14T16:11:17.941Z,0.50
2023-04-14T16:13:45.673Z,0.95
2023-04-14T16:16:14.421Z,0.50
2023-04-14T16:18:42.383Z,0.95
2023-04-14T16:21:09.369Z,0.60
2023-04-14T16:23:36.325Z,0.65
2023-04-14T16:26:03.390Z,0.60
2023-04-14T16:28:30.550Z,0.63
2023-04-14T16:31:01.810Z,0.65
2023-04-14T16:33:29.401Z,0.50
2023-04-14T16:35:57.107Z,0.50
2023-04-14T16:38:24.191Z,0.63
2023-04-14T16:40:56.360Z,0.80
2023-04-14T16:43:24.642Z,0.95
2023-04-14T16:45:51.898Z,0.50
2023-04-14T16:48:19.165Z,0.47
2023-04-14T16:50:47.383Z,0.70
2023-04-14T16:53:16.904Z,0.90
2023-04-14T16:55:45.265Z,0.50
2023-04-14T16:58:12.542Z,0.60
2023-04-14T17:00:39.550Z,0.50
2023-04-14T17:03:06.957Z,1.00
2023-04-14T17:05:34.055Z,0.73
2023-04-14T17:08:01.087Z,0.57
2023-04-14T17:10:29.548Z,0.77
2023-04-14T17:12:56.602Z,0.82
2023-04-14T17:15:23.695Z,0.70
2023-04-14T17:17:50.989Z,0.60
2023-04-14T17:20:20.515Z,0.57
2023-04-14T17:22:48.505Z,0.85
2023-04-14T17:25:19.892Z,0.90
2023-04-14T17:27:47.726Z,0.90
2023-04-14T17:30:15.386Z,0.85
2023-04-14T17:32:45.739Z,0.80
2023-04-14T17:35:13.524Z,0.60
2023-04-14T17:37:40.696Z,0.90
2023-04-14T17:40:08.364Z,0.80
2023-04-14T17:42:38.730Z,1.00
2023-04-14T17:45:06.354Z,1.35
2023-04-14T17:47:37.751Z,0.70
2023-04-14T17:50:05.833Z,0.90
2023-04-14T17:52:33.802Z,0.85
2023-04-14T17:55:01.272Z,0.77
2023-04-14T17:57:28.505Z,1.30
2023-04-14T17:59:58.643Z,1.10
2023-04-14T18:02:26.025Z,1.00
2023-04-14T18:04:53.008Z,1.10
2023-04-14T18:07:19.998Z,1.00
2023-04-14T18:09:46.935Z,1.00
2023-04-14T18:12:14.106Z,1.30
2023-04-14T18:14:41.594Z,0.80
2023-04-14T18:17:08.797Z,0.90
2023-04-14T18:19:35.965Z,1.00
2023-04-14T18:22:04.195Z,0.70
2023-04-14T18:28:02.666Z,0.95
2023-04-14T18:29:53.881Z,0.90
2023-04-14T18:32:25.232Z,0.77
2023-04-14T18:34:53.390Z,1.00
2023-04-14T18:37:23.819Z,0.75
2023-04-14T18:39:55.213Z,0.68
2023-04-14T18:42:23.713Z,1.00
2023-04-14T18:44:50.900Z,0.82
2023-04-14T18:47:19.005Z,0.70
2023-04-14T18:49:46.344Z,1.13
2023-04-14T18:52:14.637Z,0.82
2023-04-14T18:54:41.660Z,0.73
2023-04-14T18:57:08.702Z,0.60
2023-04-14T18:59:36.166Z,0.88
2023-04-14T19:02:04.485Z,0.80
2023-04-14T19:04:31.774Z,0.60
2023-04-14T19:06:58.930Z,0.60
2023-04-14T19:09:27.457Z,0.65
2023-04-14T19:11:55.614Z,1.30
2023-04-14T19:14:22.793Z,0.82
2023-04-14T19:16:50.273Z,0.70
2023-04-14T19:19:17.251Z,1.08
2023-04-14T19:21:44.170Z,0.88
2023-04-14T19:24:11.324Z,0.93
2023-04-14T19:26:40.791Z,0.93
2023-04-14T19:29:08.096Z,1.05
2023-04-14T19:31:35.167Z,1.40
2023-04-14T19:34:02.323Z,0.88
2023-04-14T19:36:32.124Z,0.88
2023-04-14T19:38:59.288Z,0.82
2023-04-14T19:41:26.453Z,0.85
2023-04-14T19:43:53.380Z,0.98
2023-04-14T19:46:20.416Z,1.20
2023-04-14T19:48:47.413Z,0.73
2023-04-14T19:51:14.411Z,1.10
2023-04-14T19:53:41.395Z,0.65
2023-04-14T19:56:08.730Z,0.75
2023-04-14T19:58:36.358Z,1.15
2023-04-14T20:01:03.538Z,0.73
2023-04-14T20:03:33.108Z,0.60
2023-04-14T20:06:01.949Z,0.80
2023-04-14T20:08:29.048Z,0.65
2023-04-14T20:10:56.210Z,1.20
2023-04-14T20:13:24.395Z,0.60
2023-04-14T20:15:53.986Z,0.60
2023-04-14T20:18:22.601Z,0.98
2023-04-14T20:20:50.226Z,0.90
2023-04-14T20:23:17.396Z,1.40
2023-04-14T20:25:45.506Z,1.08
2023-04-14T20:28:15.092Z,0.90
2023-04-14T20:30:46.745Z,1.42
2023-04-14T20:33:14.615Z,1.00
2023-04-14T20:35:43.418Z,1.25
2023-04-14T20:38:13.279Z,1.15
2023-04-14T20:40:41.672Z,1.30
2023-04-14T20:43:08.577Z,1.20
2023-04-14T20:45:35.639Z,1.10
2023-04-14T20:48:02.718Z,1.67
2023-04-14T20:50:29.751Z,1.00
2023-04-14T20:52:57.401Z,0.98
2023-04-14T20:55:24.752Z,1.00
2023-04-14T20:57:52.402Z,1.15
2023-04-14T21:00:22.529Z,1.50
2023-04-14T21:02:51.772Z,1.10
2023-04-14T21:05:19.892Z,1.60
2023-04-14T21:07:47.359Z,1.00
2023-04-14T21:10:15.487Z,1.08
2023-04-14T21:15:28.151Z,1.15
2023-04-14T21:15:53.554Z,1.00
2023-04-14T21:18:16.648Z,0.98
2023-04-14T21:20:43.733Z,1.15
2023-04-14T21:23:10.790Z,1.00
2023-04-14T21:25:37.845Z,1.15
2023-04-14T21:28:05.076Z,1.58
2023-04-14T21:30:32.209Z,1.58
2023-04-14T21:32:59.469Z,1.88
2023-04-14T21:35:26.420Z,1.33
2023-04-14T21:37:53.501Z,2.15
2023-04-14T21:40:21.501Z,1.35
2023-04-14T21:42:48.534Z,1.23
2023-04-14T21:45:15.469Z,1.10
2023-04-14T21:47:42.749Z,1.70
2023-04-14T21:50:10.487Z,1.50
2023-04-14T21:52:37.397Z,1.10
2023-04-14T21:55:05.495Z,1.80
2023-04-14T21:57:45.281Z,1.33
2023-04-14T22:00:17.999Z,1.70
2023-04-14T22:02:45.784Z,1.30
2023-04-14T22:05:13.706Z,1.50
2023-04-14T22:07:41.219Z,1.50
2023-04-14T22:10:08.486Z,1.25
2023-04-14T22:12:39.861Z,1.63
2023-04-14T22:15:08.914Z,1.48
2023-04-14T22:17:39.092Z,1.63
2023-04-14T22:20:07.649Z,2.08
2023-04-14T22:22:34.997Z,1.88
2023-04-14T22:25:03.535Z,1.88
2023-04-14T22:27:30.903Z,1.65
2023-04-14T22:29:57.817Z,1.33
2023-04-14T22:32:24.773Z,1.15
2023-04-14T22:34:52.070Z,0.88
2023-04-14T22:37:19.025Z,1.40
2023-04-14T22:39:46.430Z,1.20
2023-04-14T22:42:13.570Z,2.28
2023-04-14T22:44:41.181Z,0.80
2023-04-14T22:47:08.126Z,1.17
2023-04-14T22:49:35.175Z,0.82
2023-04-14T22:52:02.103Z,1.00
2023-04-14T22:54:31.745Z,0.82
2023-04-14T22:56:58.803Z,0.82
2023-04-14T22:59:26.880Z,1.10
2023-04-14T23:01:54.133Z,1.13
2023-04-14T23:04:21.351Z,1.17
2023-04-14T23:06:48.771Z,0.95
2023-04-14T23:09:16.127Z,1.13
2023-04-14T23:11:43.249Z,0.93
2023-04-14T23:14:10.233Z,1.20
2023-04-14T23:16:37.175Z,0.90
2023-04-14T23:19:04.302Z,1.05
2023-04-14T23:21:31.400Z,1.08
2023-04-14T23:23:58.265Z,1.08
2023-04-14T23:26:25.593Z,0.95
2023-04-14T23:28:52.971Z,1.35
2023-04-14T23:31:20.099Z,1.33
2023-04-14T23:33:49.453Z,1.38
2023-04-14T23:36:16.758Z,1.67
2023-04-14T23:38:43.771Z,1.60
2023-04-14T23:41:11.162Z,1.65
2023-04-14T23:43:38.104Z,1.15
2023-04-14T23:46:05.118Z,1.70
2023-04-14T23:48:32.450Z,1.55
2023-04-14T23:51:06.385Z,1.98
2023-04-14T23:53:42.689Z,1.25
2023-04-14T23:56:09.564Z,1.40
2023-04-14T23:58:37.268Z,1.40
